createdAt,value
2018-09-13T00:00:36.241Z,18.52
2018-09-13T00:01:36.174Z,18.52
2018-09-13T00:02:36.095Z,18.52
2018-09-13T00:03:36.028Z,18.50
2018-09-13T00:04:35.948Z,18.45
2018-09-13T00:05:35.874Z,18.53
2018-09-13T00:06:35.799Z,18.52
2018-09-13T00:07:35.735Z,18.34
2018-09-13T00:08:35.650Z,18.34
2018-09-13T00:09:35.577Z,18.35
2018-09-13T00:10:35.502Z,18.28
2018-09-13T00:11:35.437Z,18.28
2018-09-13T00:12:35.356Z,18.18
2018-09-13T00:13:35.283Z,18.15
2018-09-13T00:14:35.218Z,18.05
2018-09-13T00:15:35.137Z,18.07
2018-09-13T00:16:35.063Z,18.01
2018-09-13T00:17:34.988Z,18.05
2018-09-13T00:18:34.914Z,18.03
2018-09-13T00:19:34.837Z,18.10
2018-09-13T00:20:34.770Z,18.07
2018-09-13T00:21:34.699Z,18.05
2018-09-13T00:22:34.612Z,18.01
2018-09-13T00:23:34.539Z,18.03
2018-09-13T00:24:34.474Z,17.97
2018-09-13T00:25:34.391Z,18.05
2018-09-13T00:26:34.317Z,18.03
2018-09-13T00:27:34.242Z,17.98
2018-09-13T00:28:34.175Z,18.00
2018-09-13T00:29:34.091Z,17.94
2018-09-13T00:30:34.020Z,17.95
2018-09-13T00:31:33.950Z,18.08
2018-09-13T00:32:33.869Z,18.03
2018-09-13T00:33:33.799Z,18.05
2018-09-13T00:34:33.721Z,18.04
2018-09-13T00:35:33.648Z,18.01
2018-09-13T00:36:33.572Z,18.05
2018-09-13T00:37:33.499Z,18.05
2018-09-13T00:38:33.425Z,18.10
2018-09-13T00:39:33.399Z,18.00
2018-09-13T00:40:33.279Z,18.04
2018-09-13T00:41:33.201Z,17.98
2018-09-13T00:42:33.127Z,18.03
2018-09-13T00:43:33.053Z,18.04
2018-09-13T00:44:32.978Z,18.04
2018-09-13T00:45:32.902Z,18.07
2018-09-13T00:46:32.831Z,18.04
2018-09-13T00:47:32.754Z,17.98
2018-09-13T00:48:32.683Z,18.10
2018-09-13T00:49:32.611Z,18.00
2018-09-13T00:50:32.532Z,18.01
2018-09-13T00:51:32.460Z,18.01
2018-09-13T00:52:32.386Z,18.05
2018-09-13T00:53:32.307Z,18.01
2018-09-13T00:54:32.233Z,18.00
2018-09-13T00:55:32.160Z,18.05
2018-09-13T00:56:32.083Z,18.01
2018-09-13T00:57:32.025Z,18.04
2018-09-13T00:58:31.949Z,18.04
2018-09-13T00:59:31.863Z,18.01
2018-09-13T01:00:31.787Z,18.10
2018-09-13T01:01:31.713Z,18.00
2018-09-13T01:02:31.639Z,18.13
2018-09-13T01:03:31.571Z,18.07
2018-09-13T01:04:31.494Z,18.07
2018-09-13T01:05:31.415Z,18.07
2018-09-13T01:06:31.345Z,17.98
2018-09-13T01:07:31.267Z,18.04
2018-09-13T01:08:31.192Z,17.98
2018-09-13T01:09:31.116Z,17.95
2018-09-13T01:10:31.049Z,17.98
2018-09-13T01:11:30.970Z,17.89
2018-09-13T01:12:30.901Z,17.92
2018-09-13T01:13:30.831Z,17.87
2018-09-13T01:14:30.744Z,17.89
2018-09-13T01:15:30.675Z,17.92
2018-09-13T01:16:30.596Z,17.90
2018-09-13T01:17:30.524Z,17.95
2018-09-13T01:18:30.446Z,17.92
2018-09-13T01:19:30.374Z,17.89
2018-09-13T01:20:30.300Z,17.92
2018-09-13T01:21:30.227Z,17.94
2018-09-13T01:22:30.152Z,17.90
2018-09-13T01:23:30.075Z,17.86
2018-09-13T01:24:30.001Z,17.89
2018-09-13T01:25:29.926Z,17.89
2018-09-13T01:26:29.853Z,17.86
2018-09-13T01:27:29.778Z,17.87
2018-09-13T01:28:29.706Z,17.80
2018-09-13T01:29:29.629Z,17.80
2018-09-13T01:30:29.556Z,17.80
2018-09-13T01:31:29.483Z,17.82
2018-09-13T01:32:29.405Z,17.82
2018-09-13T01:33:29.333Z,17.82
2018-09-13T01:34:29.255Z,17.87
2018-09-13T01:35:29.183Z,17.89
2018-09-13T01:36:29.107Z,17.89
2018-09-13T01:37:29.035Z,17.89
2018-09-13T01:38:28.958Z,17.87
2018-09-13T01:39:28.888Z,17.92
2018-09-13T01:40:28.808Z,17.92
2018-09-13T01:41:28.735Z,17.92
2018-09-13T01:42:28.664Z,17.87
2018-09-13T01:43:28.584Z,17.86
2018-09-13T01:44:28.509Z,17.85
2018-09-13T01:45:28.434Z,17.85
2018-09-13T01:46:28.361Z,17.78
2018-09-13T01:47:28.287Z,17.72
2018-09-13T01:48:28.212Z,17.71
2018-09-13T01:49:28.138Z,17.76
2018-09-13T01:50:28.064Z,17.76
2018-09-13T01:51:27.988Z,17.80
2018-09-13T01:52:27.915Z,17.68
2018-09-13T01:53:27.839Z,17.71
2018-09-13T01:54:27.765Z,17.71
2018-09-13T01:55:27.689Z,17.67
2018-09-13T01:56:27.622Z,17.52
2018-09-13T01:57:27.541Z,17.57
2018-09-13T01:58:27.465Z,17.63
2018-09-13T01:59:27.391Z,17.52
2018-09-13T02:00:27.315Z,17.52
2018-09-13T02:01:27.244Z,17.51
2018-09-13T02:02:27.168Z,17.52
2018-09-13T02:03:27.115Z,17.57
2018-09-13T02:04:27.016Z,17.38
2018-09-13T02:05:26.942Z,17.38
2018-09-13T02:06:26.870Z,17.30
2018-09-13T02:07:26.794Z,17.33
2018-09-13T02:08:26.717Z,17.24
2018-09-13T02:09:26.645Z,17.31
2018-09-13T02:10:26.567Z,17.19
2018-09-13T02:11:26.496Z,17.29
2018-09-13T02:12:26.417Z,17.22
2018-09-13T02:13:26.344Z,17.27
2018-09-13T02:14:26.277Z,17.29
2018-09-13T02:15:26.195Z,17.23
2018-09-13T02:16:26.117Z,17.24
2018-09-13T02:17:26.044Z,17.26
2018-09-13T02:18:25.969Z,17.27
2018-09-13T02:19:25.896Z,17.29
2018-09-13T02:20:25.818Z,17.30
2018-09-13T02:21:25.743Z,17.29
2018-09-13T02:22:25.669Z,17.27
2018-09-13T02:23:25.595Z,17.29
2018-09-13T02:24:25.519Z,17.26
2018-09-13T02:25:25.443Z,17.34
2018-09-13T02:26:25.374Z,17.27
2018-09-13T02:27:25.295Z,17.24
2018-09-13T02:28:25.219Z,17.26
2018-09-13T02:29:25.146Z,17.33
2018-09-13T02:30:25.075Z,17.26
2018-09-13T02:31:24.995Z,17.24
2018-09-13T02:32:24.920Z,17.23
2018-09-13T02:33:24.844Z,17.26
2018-09-13T02:34:24.770Z,17.27
2018-09-13T02:35:24.704Z,17.26
2018-09-13T02:36:24.619Z,17.27
2018-09-13T02:37:24.553Z,17.33
2018-09-13T02:38:24.471Z,17.27
2018-09-13T02:39:24.397Z,17.31
2018-09-13T02:40:24.323Z,17.34
2018-09-13T02:41:24.252Z,17.30
2018-09-13T02:42:24.173Z,17.36
2018-09-13T02:43:24.097Z,17.42
2018-09-13T02:44:24.023Z,17.39
2018-09-13T02:45:23.951Z,17.45
2018-09-13T02:46:23.873Z,17.36
2018-09-13T02:47:23.797Z,17.44
2018-09-13T02:48:23.724Z,17.34
2018-09-13T02:49:23.648Z,17.39
2018-09-13T02:50:23.573Z,17.39
2018-09-13T02:51:23.497Z,17.48
2018-09-13T02:52:23.420Z,17.54
2018-09-13T02:53:23.348Z,17.56
2018-09-13T02:54:23.277Z,17.60
2018-09-13T02:55:23.198Z,17.56
2018-09-13T02:56:23.121Z,17.51
2018-09-13T02:57:23.047Z,17.63
2018-09-13T02:58:22.973Z,17.64
2018-09-13T02:59:22.899Z,17.56
2018-09-13T03:00:22.822Z,17.59
2018-09-13T03:01:22.747Z,17.65
2018-09-13T03:02:22.673Z,17.67
2018-09-13T03:03:22.598Z,17.68
2018-09-13T03:04:22.527Z,17.78
2018-09-13T03:05:22.450Z,17.72
2018-09-13T03:06:22.375Z,17.79
2018-09-13T03:07:22.300Z,17.70
2018-09-13T03:08:22.262Z,17.74
2018-09-13T03:09:22.150Z,17.65
2018-09-13T03:10:22.076Z,17.76
2018-09-13T03:11:22.000Z,17.71
2018-09-13T03:12:21.927Z,17.79
2018-09-13T03:13:21.851Z,17.74
2018-09-13T03:14:21.776Z,17.71
2018-09-13T03:15:21.702Z,17.78
2018-09-13T03:16:21.634Z,17.80
2018-09-13T03:17:21.555Z,17.83
2018-09-13T03:18:21.479Z,17.82
2018-09-13T03:19:21.406Z,17.85
2018-09-13T03:20:21.329Z,17.82
2018-09-13T03:21:21.258Z,17.85
2018-09-13T03:22:21.185Z,17.87
2018-09-13T03:23:21.108Z,17.82
2018-09-13T03:24:21.028Z,17.79
2018-09-13T03:25:20.957Z,17.85
2018-09-13T03:26:20.884Z,17.80
2018-09-13T03:27:20.807Z,17.90
2018-09-13T03:28:20.731Z,17.89
2018-09-13T03:29:20.658Z,17.76
2018-09-13T03:30:20.589Z,17.79
2018-09-13T03:31:20.529Z,17.83
2018-09-13T03:32:20.436Z,17.80
2018-09-13T03:33:20.357Z,17.86
2018-09-13T03:34:20.285Z,17.86
2018-09-13T03:35:20.211Z,17.87
2018-09-13T03:36:20.138Z,17.89
2018-09-13T03:37:20.062Z,17.86
2018-09-13T03:38:19.984Z,17.89
2018-09-13T03:39:19.913Z,17.92
2018-09-13T03:40:19.835Z,17.97
2018-09-13T03:41:19.765Z,17.94
2018-09-13T03:42:19.687Z,18.00
2018-09-13T03:43:19.614Z,17.95
2018-09-13T03:44:19.537Z,17.87
2018-09-13T03:45:19.475Z,17.87
2018-09-13T03:46:19.390Z,17.83
2018-09-13T03:47:19.315Z,17.85
2018-09-13T03:48:19.239Z,17.86
2018-09-13T03:49:19.164Z,17.85
2018-09-13T03:50:19.094Z,17.95
2018-09-13T03:51:19.017Z,17.90
2018-09-13T03:52:18.941Z,17.87
2018-09-13T03:53:18.866Z,17.95
2018-09-13T03:54:18.792Z,17.90
2018-09-13T03:55:18.719Z,17.97
2018-09-13T03:56:18.643Z,17.95
2018-09-13T03:57:18.567Z,17.95
2018-09-13T03:58:18.494Z,17.97
2018-09-13T03:59:18.465Z,18.04
2018-09-13T04:00:18.344Z,18.04
2018-09-13T04:01:18.272Z,18.03
2018-09-13T04:02:18.196Z,18.04
2018-09-13T04:03:18.156Z,18.04
2018-09-13T04:04:18.048Z,18.05
2018-09-13T04:05:17.976Z,18.03
2018-09-13T04:06:17.899Z,18.05
2018-09-13T04:07:17.830Z,18.03
2018-09-13T04:08:17.750Z,18.03
2018-09-13T04:09:17.678Z,18.03
2018-09-13T04:10:17.599Z,18.04
2018-09-13T04:11:17.525Z,17.98
2018-09-13T04:12:17.452Z,18.07
2018-09-13T04:13:24.546Z,18.05
2018-09-13T04:15:21.241Z,18.11
2018-09-13T04:16:21.122Z,18.11
2018-09-13T04:18:25.028Z,18.04
2018-09-13T04:19:24.951Z,18.07
2018-09-13T04:21:28.840Z,18.07
2018-09-13T04:22:28.704Z,18.08
2018-09-13T04:24:21.488Z,18.07
2018-09-13T04:25:21.366Z,18.04
2018-09-13T04:27:25.180Z,18.16
2018-09-13T04:28:25.111Z,18.05
2018-09-13T04:30:28.962Z,18.08
2018-09-13T04:31:28.840Z,18.07
2018-09-13T04:33:32.664Z,18.03
2018-09-13T04:34:32.584Z,18.08
2018-09-13T04:35:32.605Z,18.07
2018-09-13T04:36:32.433Z,18.01
2018-09-13T04:37:32.358Z,18.05
2018-09-13T04:38:32.286Z,18.11
2018-09-13T04:39:32.210Z,18.16
2018-09-13T04:40:32.134Z,18.18
2018-09-13T04:41:32.059Z,18.13
2018-09-13T04:42:31.987Z,18.15
2018-09-13T04:43:31.913Z,18.19
2018-09-13T04:44:31.836Z,18.25
2018-09-13T04:45:31.762Z,18.25
2018-09-13T04:46:31.687Z,18.26
2018-09-13T04:47:31.613Z,18.26
2018-09-13T04:48:31.542Z,18.23
2018-09-13T04:49:31.463Z,18.15
2018-09-13T04:50:31.391Z,18.20
2018-09-13T04:51:31.325Z,18.05
2018-09-13T04:52:31.242Z,18.07
2018-09-13T04:53:31.166Z,18.04
2018-09-13T04:54:31.095Z,18.07
2018-09-13T04:55:31.023Z,18.00
2018-09-13T04:56:30.944Z,17.89
2018-09-13T04:57:30.869Z,17.90
2018-09-13T04:58:30.797Z,17.95
2018-09-13T04:59:30.719Z,17.92
2018-09-13T05:00:30.655Z,17.92
2018-09-13T05:01:30.591Z,17.90
2018-09-13T05:02:30.505Z,17.85
2018-09-13T05:03:30.422Z,17.87
2018-09-13T05:04:30.358Z,17.86
2018-09-13T05:05:30.276Z,17.83
2018-09-13T05:06:30.206Z,17.92
2018-09-13T05:07:30.127Z,17.92
2018-09-13T05:08:30.051Z,17.95
2018-09-13T05:09:29.975Z,17.98
2018-09-13T05:10:29.900Z,17.94
2018-09-13T05:11:29.827Z,17.97
2018-09-13T05:12:29.770Z,17.94
2018-09-13T05:13:29.679Z,17.98
2018-09-13T05:14:29.602Z,17.97
2018-09-13T05:15:29.527Z,17.89
2018-09-13T05:16:29.456Z,17.89
2018-09-13T05:17:29.378Z,17.79
2018-09-13T05:18:29.307Z,17.76
2018-09-13T05:19:29.229Z,17.70
2018-09-13T05:20:29.165Z,17.82
2018-09-13T05:21:29.080Z,17.74
2018-09-13T05:22:29.004Z,17.76
2018-09-13T05:23:28.931Z,17.70
2018-09-13T05:24:28.868Z,17.76
2018-09-13T05:25:28.782Z,17.76
2018-09-13T05:26:28.708Z,17.78
2018-09-13T05:27:28.634Z,17.79
2018-09-13T05:28:28.556Z,17.79
2018-09-13T05:29:28.485Z,17.70
2018-09-13T05:30:28.410Z,17.74
2018-09-13T05:31:28.346Z,17.74
2018-09-13T05:32:28.258Z,17.79
2018-09-13T05:33:28.186Z,17.85
2018-09-13T05:34:28.111Z,17.90
2018-09-13T05:35:28.033Z,17.86
2018-09-13T05:36:27.969Z,17.87
2018-09-13T05:37:27.883Z,17.89
2018-09-13T05:38:27.810Z,18.03
2018-09-13T05:39:27.734Z,17.92
2018-09-13T05:40:27.663Z,18.05
2018-09-13T05:41:27.595Z,18.04
2018-09-13T05:42:27.512Z,18.08
2018-09-13T05:43:27.436Z,18.18
2018-09-13T05:44:27.374Z,18.08
2018-09-13T05:45:27.285Z,18.22
2018-09-13T05:46:27.228Z,18.23
2018-09-13T05:47:27.138Z,18.25
2018-09-13T05:48:27.063Z,18.31
2018-09-13T05:49:26.988Z,18.35
2018-09-13T05:50:26.915Z,18.37
2018-09-13T05:51:26.881Z,18.31
2018-09-13T05:52:26.768Z,18.38
2018-09-13T05:53:26.693Z,18.49
2018-09-13T05:54:26.625Z,18.40
2018-09-13T05:55:26.542Z,18.38
2018-09-13T05:56:26.470Z,18.37
2018-09-13T05:57:26.397Z,18.43
2018-09-13T05:58:26.318Z,18.40
2018-09-13T05:59:26.248Z,18.38
2018-09-13T06:00:26.173Z,18.45
2018-09-13T06:01:26.105Z,18.52
2018-09-13T06:02:26.022Z,18.53
2018-09-13T06:03:25.947Z,18.52
2018-09-13T06:04:25.881Z,18.56
2018-09-13T06:05:25.799Z,18.55
2018-09-13T06:06:25.724Z,18.52
2018-09-13T06:07:25.650Z,18.58
2018-09-13T06:08:25.576Z,18.63
2018-09-13T06:09:25.516Z,18.62
2018-09-13T06:10:25.432Z,18.71
2018-09-13T06:11:25.353Z,18.71
2018-09-13T06:12:25.292Z,18.63
2018-09-13T06:13:25.259Z,18.71
2018-09-13T06:14:25.136Z,18.78
2018-09-13T06:15:25.058Z,18.81
2018-09-13T06:16:24.985Z,18.83
2018-09-13T06:17:24.909Z,18.84
2018-09-13T06:18:24.833Z,18.88
2018-09-13T06:19:24.761Z,18.83
2018-09-13T06:20:24.690Z,18.93
2018-09-13T06:21:24.612Z,18.90
2018-09-13T06:22:24.541Z,18.95
2018-09-13T06:23:24.465Z,19.02
2018-09-13T06:24:24.404Z,18.98
2018-09-13T06:25:24.316Z,19.07
2018-09-13T06:26:24.265Z,19.00
2018-09-13T06:27:24.169Z,19.04
2018-09-13T06:28:24.096Z,19.11
2018-09-13T06:29:24.062Z,19.19
2018-09-13T06:30:23.949Z,19.21
2018-09-13T06:31:23.875Z,19.24
2018-09-13T06:32:23.801Z,19.29
2018-09-13T06:33:23.726Z,19.24
2018-09-13T06:34:23.659Z,19.31
2018-09-13T06:35:23.585Z,19.27
2018-09-13T06:36:23.546Z,19.26
2018-09-13T06:37:23.432Z,19.31
2018-09-13T06:38:23.383Z,19.30
2018-09-13T06:39:23.288Z,19.27
2018-09-13T06:40:23.217Z,19.36
2018-09-13T06:41:23.151Z,19.41
2018-09-13T06:42:23.116Z,19.44
2018-09-13T06:43:22.995Z,19.44
2018-09-13T06:44:22.917Z,19.56
2018-09-13T06:45:22.848Z,19.52
2018-09-13T06:46:22.774Z,19.52
2018-09-13T06:47:22.702Z,19.51
2018-09-13T06:48:22.628Z,19.51
2018-09-13T06:49:22.553Z,19.51
2018-09-13T06:50:22.478Z,19.56
2018-09-13T06:51:22.403Z,19.56
2018-09-13T06:52:22.358Z,19.49
2018-09-13T06:53:22.257Z,19.51
2018-09-13T06:54:22.183Z,19.59
2018-09-13T06:55:22.119Z,19.59
2018-09-13T06:56:22.038Z,19.62
2018-09-13T06:57:21.965Z,19.56
2018-09-13T06:58:21.891Z,19.58
2018-09-13T06:59:21.852Z,19.64
2018-09-13T07:00:21.747Z,19.66
2018-09-13T07:01:21.670Z,19.63
2018-09-13T07:02:21.628Z,19.66
2018-09-13T07:03:21.526Z,19.70
2018-09-13T07:04:21.469Z,19.69
2018-09-13T07:05:21.402Z,19.59
2018-09-13T07:06:21.304Z,19.70
2018-09-13T07:07:21.233Z,19.71
2018-09-13T07:08:21.156Z,19.69
2018-09-13T07:09:21.087Z,19.63
2018-09-13T07:10:21.010Z,19.59
2018-09-13T07:11:20.937Z,19.51
2018-09-13T07:12:20.868Z,19.55
2018-09-13T07:13:20.792Z,19.52
2018-09-13T07:14:20.717Z,19.45
2018-09-13T07:15:20.644Z,19.39
2018-09-13T07:16:20.575Z,19.39
2018-09-13T07:17:20.499Z,19.39
2018-09-13T07:18:20.423Z,19.37
2018-09-13T07:19:20.355Z,19.37
2018-09-13T07:20:20.279Z,19.41
2018-09-13T07:21:20.206Z,19.55
2018-09-13T07:22:20.130Z,19.56
2018-09-13T07:23:20.059Z,19.49
2018-09-13T07:24:19.991Z,19.52
2018-09-13T07:25:19.910Z,19.52
2018-09-13T07:26:19.841Z,19.54
2018-09-13T07:27:19.765Z,19.49
2018-09-13T07:28:19.689Z,19.54
2018-09-13T07:29:19.671Z,19.56
2018-09-13T07:30:19.542Z,19.52
2018-09-13T07:31:19.469Z,19.55
2018-09-13T07:32:19.405Z,19.48
2018-09-13T07:33:19.323Z,19.49
2018-09-13T07:34:19.249Z,19.64
2018-09-13T07:35:19.187Z,19.62
2018-09-13T07:36:19.105Z,19.62
2018-09-13T07:37:19.029Z,19.58
2018-09-13T07:38:18.958Z,19.56
2018-09-13T07:39:18.882Z,19.63
2018-09-13T07:40:18.813Z,19.55
2018-09-13T07:41:18.740Z,19.55
2018-09-13T07:42:18.701Z,19.58
2018-09-13T07:43:18.588Z,19.58
2018-09-13T07:44:18.517Z,19.48
2018-09-13T07:45:18.445Z,19.52
2018-09-13T07:46:18.368Z,19.52
2018-09-13T07:47:18.303Z,19.56
2018-09-13T07:48:18.227Z,19.44
2018-09-13T07:49:18.172Z,19.54
2018-09-13T07:50:18.076Z,19.45
2018-09-13T07:51:18.035Z,19.56
2018-09-13T07:52:17.930Z,19.44
2018-09-13T07:53:17.854Z,19.37
2018-09-13T07:54:17.886Z,19.37
2018-09-13T07:55:17.714Z,19.33
2018-09-13T07:56:17.695Z,19.29
2018-09-13T07:57:17.560Z,19.34
2018-09-13T07:58:17.488Z,19.33
2018-09-13T07:59:17.414Z,19.27
2018-09-13T08:00:17.342Z,19.30
2018-09-13T08:01:17.273Z,19.29
2018-09-13T08:02:17.198Z,19.30
2018-09-13T08:03:17.121Z,19.36
2018-09-13T08:04:17.047Z,19.22
2018-09-13T08:05:16.972Z,19.30
2018-09-13T08:06:16.899Z,19.27
2018-09-13T08:07:16.828Z,19.26
2018-09-13T08:08:16.762Z,19.33
2018-09-13T08:09:16.682Z,19.34
2018-09-13T08:10:16.614Z,19.22
2018-09-13T08:11:16.558Z,19.22
2018-09-13T08:12:16.593Z,19.19
2018-09-13T08:13:16.392Z,19.16
2018-09-13T08:14:16.314Z,19.16
2018-09-13T08:15:16.237Z,19.21
2018-09-13T08:16:16.163Z,19.33
2018-09-13T08:17:16.092Z,19.30
2018-09-13T08:18:16.022Z,19.26
2018-09-13T08:19:15.941Z,19.24
2018-09-13T08:20:15.872Z,19.27
2018-09-13T08:21:15.811Z,19.27
2018-09-13T08:22:15.724Z,19.26
2018-09-13T08:23:15.648Z,19.24
2018-09-13T08:24:15.584Z,19.24
2018-09-13T08:25:15.501Z,19.29
2018-09-13T08:26:15.425Z,19.22
2018-09-13T08:27:15.413Z,19.30
2018-09-13T08:28:15.281Z,19.27
2018-09-13T08:29:15.206Z,19.29
2018-09-13T08:30:15.133Z,19.29
2018-09-13T08:31:15.060Z,19.37
2018-09-13T08:32:14.988Z,19.30
2018-09-13T08:33:14.957Z,19.31
2018-09-13T08:34:14.837Z,19.29
2018-09-13T08:35:14.794Z,19.30
2018-09-13T08:36:14.695Z,19.27
2018-09-13T08:37:14.617Z,19.36
2018-09-13T08:38:14.546Z,19.44
2018-09-13T08:39:14.470Z,19.41
2018-09-13T08:40:14.411Z,19.41
2018-09-13T08:41:14.327Z,19.41
2018-09-13T08:42:14.260Z,19.52
2018-09-13T08:43:14.264Z,19.51
2018-09-13T08:44:14.102Z,19.59
2018-09-13T08:45:14.028Z,19.56
2018-09-13T08:46:13.955Z,19.59
2018-09-13T08:47:13.881Z,19.66
2018-09-13T08:48:13.808Z,19.55
2018-09-13T08:49:13.733Z,19.55
2018-09-13T08:50:13.661Z,19.55
2018-09-13T08:51:13.589Z,19.56
2018-09-13T08:52:13.601Z,19.62
2018-09-13T08:53:13.450Z,19.59
2018-09-13T08:54:13.367Z,19.59
2018-09-13T08:55:13.316Z,19.52
2018-09-13T08:56:13.220Z,19.52
2018-09-13T08:57:13.146Z,19.54
2018-09-13T08:58:13.073Z,19.55
2018-09-13T08:59:13.003Z,19.49
2018-09-13T09:00:12.927Z,19.51
2018-09-13T09:01:12.864Z,19.51
2018-09-13T09:02:12.778Z,19.40
2018-09-13T09:03:12.706Z,19.55
2018-09-13T09:04:12.634Z,19.52
2018-09-13T09:05:12.559Z,19.51
2018-09-13T09:06:12.491Z,19.56
2018-09-13T09:07:12.414Z,19.55
2018-09-13T09:08:12.340Z,19.41
2018-09-13T09:09:12.265Z,19.39
2018-09-13T09:10:12.191Z,19.36
2018-09-13T09:11:12.121Z,19.48
2018-09-13T09:12:12.074Z,19.47
2018-09-13T09:13:11.970Z,19.44
2018-09-13T09:14:11.898Z,19.56
2018-09-13T09:15:11.827Z,19.59
2018-09-13T09:16:11.751Z,19.67
2018-09-13T09:17:11.677Z,19.64
2018-09-13T09:18:11.604Z,19.67
2018-09-13T09:19:11.531Z,19.66
2018-09-13T09:20:11.456Z,19.67
2018-09-13T09:21:11.385Z,19.77
2018-09-13T09:22:11.316Z,19.67
2018-09-13T09:23:11.255Z,19.59
2018-09-13T09:24:11.230Z,19.47
2018-09-13T09:25:11.103Z,19.33
2018-09-13T09:26:11.017Z,19.31
2018-09-13T09:27:10.942Z,19.27
2018-09-13T09:28:10.873Z,19.30
2018-09-13T09:29:10.837Z,19.31
2018-09-13T09:30:10.722Z,19.31
2018-09-13T09:31:10.662Z,19.37
2018-09-13T09:32:10.577Z,19.37
2018-09-13T09:33:10.502Z,19.45
2018-09-13T09:34:10.428Z,19.45
2018-09-13T09:35:10.443Z,19.49
2018-09-13T09:36:10.282Z,19.56
2018-09-13T09:37:10.210Z,19.44
2018-09-13T09:38:10.136Z,19.51
2018-09-13T09:39:10.062Z,19.47
2018-09-13T09:40:09.988Z,19.58
2018-09-13T09:41:09.915Z,19.49
2018-09-13T09:42:09.841Z,19.56
2018-09-13T09:43:09.769Z,19.63
2018-09-13T09:44:09.716Z,19.63
2018-09-13T09:45:09.621Z,19.69
2018-09-13T09:46:09.550Z,19.76
2018-09-13T09:47:09.473Z,19.76
2018-09-13T09:48:09.412Z,19.81
2018-09-13T09:49:09.329Z,19.86
2018-09-13T09:50:09.312Z,19.94
2018-09-13T09:51:09.185Z,19.92
2018-09-13T09:52:09.129Z,19.94
2018-09-13T09:53:09.032Z,20.04
2018-09-13T09:54:08.965Z,20.06
2018-09-13T09:55:08.888Z,20.09
2018-09-13T09:56:08.869Z,20.19
2018-09-13T09:57:08.743Z,20.18
2018-09-13T09:58:08.668Z,20.25
2018-09-13T09:59:08.598Z,20.26
2018-09-13T10:00:08.524Z,20.25
2018-09-13T10:01:08.450Z,20.40
2018-09-13T10:02:08.375Z,20.44
2018-09-13T10:03:08.338Z,20.55
2018-09-13T10:04:08.231Z,20.62
2018-09-13T10:05:08.157Z,20.63
2018-09-13T10:06:08.086Z,20.69
2018-09-13T10:07:08.014Z,20.90
2018-09-13T10:08:07.940Z,20.80
2018-09-13T10:09:07.966Z,20.97
2018-09-13T10:10:07.798Z,20.96
2018-09-13T10:11:07.721Z,21.02
2018-09-13T10:12:07.650Z,21.11
2018-09-13T10:13:07.579Z,21.12
2018-09-13T10:14:07.505Z,21.15
2018-09-13T10:15:07.498Z,21.30
2018-09-13T10:16:07.377Z,21.21
2018-09-13T10:17:07.288Z,21.27
2018-09-13T10:18:07.224Z,21.33
2018-09-13T10:19:07.152Z,21.37
2018-09-13T10:20:07.073Z,21.43
2018-09-13T10:21:07.001Z,21.55
2018-09-13T10:22:06.932Z,21.46
2018-09-13T10:23:06.857Z,21.55
2018-09-13T10:24:06.788Z,21.61
2018-09-13T10:25:06.715Z,21.66
2018-09-13T10:26:06.644Z,21.70
2018-09-13T10:27:06.665Z,21.69
2018-09-13T10:28:06.498Z,21.76
2018-09-13T10:29:06.478Z,21.64
2018-09-13T10:30:06.365Z,21.60
2018-09-13T10:31:06.298Z,21.67
2018-09-13T10:32:06.217Z,21.62
2018-09-13T10:33:06.140Z,21.60
2018-09-13T10:34:06.069Z,21.69
2018-09-13T10:35:05.998Z,21.66
2018-09-13T10:36:05.929Z,21.64
2018-09-13T10:37:05.856Z,21.69
2018-09-13T10:38:05.782Z,21.58
2018-09-13T10:39:05.715Z,21.60
2018-09-13T10:40:05.643Z,21.54
2018-09-13T10:41:05.568Z,21.61
2018-09-13T10:42:05.496Z,21.58
2018-09-13T10:43:05.426Z,21.61
2018-09-13T10:44:05.362Z,21.69
2018-09-13T10:45:05.284Z,21.75
2018-09-13T10:46:05.209Z,21.72
2018-09-13T10:47:05.139Z,21.72
2018-09-13T10:48:05.128Z,21.73
2018-09-13T10:49:04.995Z,21.75
2018-09-13T10:50:04.924Z,21.79
2018-09-13T10:51:04.858Z,21.83
2018-09-13T10:52:04.791Z,21.75
2018-09-13T10:53:04.797Z,21.89
2018-09-13T10:54:04.641Z,21.82
2018-09-13T10:55:04.568Z,21.77
2018-09-13T10:56:04.495Z,21.77
2018-09-13T10:57:04.428Z,21.75
2018-09-13T10:58:04.352Z,21.82
2018-09-13T10:59:04.312Z,21.83
2018-09-13T11:00:04.212Z,21.92
2018-09-13T11:01:04.150Z,21.92
2018-09-13T11:02:04.070Z,21.89
2018-09-13T11:03:03.998Z,22.06
2018-09-13T11:04:03.957Z,22.08
2018-09-13T11:05:03.880Z,22.20
2018-09-13T11:06:10.961Z,22.29
2018-09-13T11:08:07.684Z,22.44
2018-09-13T11:09:07.558Z,22.57
2018-09-13T11:11:11.438Z,22.75
2018-09-13T11:12:11.343Z,22.76
2018-09-13T11:14:15.210Z,23.06
2018-09-13T11:15:15.091Z,23.12
2018-09-13T11:17:08.387Z,23.44
2018-09-13T11:18:08.297Z,23.65
2018-09-13T11:20:12.114Z,23.81
2018-09-13T11:21:12.033Z,23.91
2018-09-13T11:23:15.919Z,23.98
2018-09-13T11:24:15.797Z,24.08
2018-09-13T11:26:19.686Z,24.21
2018-09-13T11:27:19.571Z,24.29
2018-09-13T11:29:23.451Z,24.69
2018-09-13T11:30:23.360Z,24.73
2018-09-13T11:32:27.654Z,24.69
2018-09-13T11:33:27.582Z,24.86
2018-09-13T11:35:31.474Z,25.23
2018-09-13T11:36:31.354Z,25.43
2018-09-13T11:37:31.287Z,25.75
2018-09-13T11:38:31.224Z,26.13
2018-09-13T11:39:31.158Z,26.75
2018-09-13T11:40:31.291Z,27.32
2018-09-13T11:41:31.023Z,27.86
2018-09-13T11:42:30.965Z,28.37
2018-09-13T11:43:30.894Z,28.94
2018-09-13T11:44:30.833Z,29.44
2018-09-13T11:45:30.769Z,30.05
2018-09-13T11:46:30.705Z,30.55
2018-09-13T11:47:30.649Z,30.94
2018-09-13T11:48:30.579Z,31.29
2018-09-13T11:49:30.519Z,31.71
2018-09-13T11:50:30.459Z,32.07
2018-09-13T11:51:30.397Z,32.55
2018-09-13T11:52:30.338Z,32.96
2018-09-13T11:53:30.276Z,32.64
2018-09-13T11:54:30.218Z,32.34
2018-09-13T11:55:30.156Z,32.83
2018-09-13T11:56:30.097Z,32.75
2018-09-13T11:57:30.038Z,32.80
2018-09-13T11:58:29.983Z,33.53
2018-09-13T11:59:29.919Z,33.65
2018-09-13T12:00:29.861Z,32.90
2018-09-13T12:01:29.799Z,32.16
2018-09-13T12:02:29.742Z,31.58
2018-09-13T12:03:29.683Z,31.22
2018-09-13T12:04:29.622Z,30.69
2018-09-13T12:05:29.564Z,30.34
2018-09-13T12:06:29.502Z,30.15
2018-09-13T12:07:29.441Z,30.15
2018-09-13T12:08:29.382Z,30.90
2018-09-13T12:09:29.345Z,31.40
2018-09-13T12:10:29.260Z,31.89
2018-09-13T12:11:29.199Z,32.15
2018-09-13T12:12:29.141Z,32.03
2018-09-13T12:13:29.076Z,32.11
2018-09-13T12:14:29.020Z,32.53
2018-09-13T12:15:28.955Z,32.36
2018-09-13T12:16:28.897Z,32.15
2018-09-13T12:17:28.835Z,31.96
2018-09-13T12:18:28.803Z,31.90
2018-09-13T12:19:28.716Z,32.58
2018-09-13T12:20:28.657Z,32.97
2018-09-13T12:21:28.590Z,33.59
2018-09-13T12:22:28.576Z,34.08
2018-09-13T12:23:28.725Z,34.92
2018-09-13T12:24:28.411Z,35.55
2018-09-13T12:25:28.348Z,36.17
2018-09-13T12:26:28.288Z,36.68
2018-09-13T12:27:28.247Z,37.26
2018-09-13T12:28:28.181Z,37.70
2018-09-13T12:29:28.110Z,38.01
2018-09-13T12:30:28.051Z,38.24
2018-09-13T12:31:27.992Z,38.55
2018-09-13T12:32:27.952Z,38.79
2018-09-13T12:33:27.882Z,38.96
2018-09-13T12:34:27.818Z,39.14
2018-09-13T12:35:27.762Z,39.43
2018-09-13T12:36:27.708Z,39.70
2018-09-13T12:37:27.652Z,40.02
2018-09-13T12:38:27.598Z,40.11
2018-09-13T12:39:27.537Z,40.16
2018-09-13T12:40:27.483Z,40.33
2018-09-13T12:41:27.423Z,40.30
2018-09-13T12:42:27.367Z,40.53
2018-09-13T12:43:27.312Z,40.73
2018-09-13T12:44:27.258Z,40.49
2018-09-13T12:45:27.203Z,40.58
2018-09-13T12:46:27.153Z,40.63
2018-09-13T12:47:27.092Z,41.06
2018-09-13T12:48:27.040Z,41.31
2018-09-13T12:49:26.984Z,41.65
2018-09-13T12:50:26.928Z,41.91
2018-09-13T12:51:26.878Z,42.07
2018-09-13T12:52:26.820Z,42.09
2018-09-13T12:53:26.775Z,42.21
2018-09-13T12:54:26.771Z,42.21
2018-09-13T12:55:26.669Z,42.20
2018-09-13T12:56:26.608Z,42.39
2018-09-13T12:57:26.553Z,42.47
2018-09-13T12:58:26.503Z,42.54
2018-09-13T12:59:26.466Z,42.74
2018-09-13T13:00:26.398Z,42.79
2018-09-13T13:01:26.344Z,42.66
2018-09-13T13:02:26.290Z,42.67
2018-09-13T13:03:26.240Z,42.70
2018-09-13T13:04:26.185Z,42.73
2018-09-13T13:05:26.131Z,42.79
2018-09-13T13:06:26.081Z,42.70
2018-09-13T13:07:26.027Z,42.57
2018-09-13T13:08:25.979Z,42.48
2018-09-13T13:09:25.921Z,42.63